SAVV/VDM METAR and TAF weather

Enter ICAO airport designator
Station Type Date Time Source
SAVV METAR 2020/05/10 23:05 UTC NOAA

SAVV 102305Z 23010KT 8000 TSRA BKN030 FEW040CB 13/07 Q1004


Station Type Date Time Source
SAVV Decoded METAR 2020/05/10 23:05 UTC NOAA

Viedma Aerodrome, Argentina (SAVV) 40-51S 063-01W 7M
May 10, 2020 - 07:05 PM EDT / 2020.05.10 2305 UTC
Wind: from the SW (230 degrees) at 12 MPH (10 KT):0
Visibility: 4 mile(s):0
Sky conditions: mostly cloudy
Weather: rain with thunder; Cumulonimbus clouds observed
Temperature: 55 F (13 C)
Dew Point: 44 F (7 C)
Relative Humidity: 66%
Pressure (altimeter): 29.65 in. Hg (1004 hPa)
ob: SAVV 102305Z 23010KT 8000 TSRA BKN030 FEW040CB 13/07 Q1004
cycle: 23

Station Type Date Time Source
SAVV TAF 2019/04/29 06:24 UTC NOAA

TAF TAF SAVV 290500Z 2906/3006 29015KT CAVOK TX18/2919Z TN07/3006Z
BECMG 2908/3010 25010KT
TEMPO 2914/2921 25020G30KT

Example: see airport list